Dad Vail Regatta 2018
#9 Women's V. Hvwt Four w/Cox (Open) Time-Trial 1 (09:37)
Official



<--Previous        Next Event 10 -->

Rank/Rang Number/Dossard l Name/Nom Time/Temps ()   Time/Temps   %
1 435 Florida Tech 39 (Bonavila, N.) 06:53.626   06:53.626  
2 440 Bowdoin 7 (Larson, M.) 06:53.971   06:53.971 0.08
3 431 Drexel 32 (Wojciechowicz, C.) 06:58.367   06:58.367 1.15
4 433 Boston U 6 (Walter, H.) 07:03.900   07:03.900 2.48
5 458 Pittsburgh 86 (Donahue, M.) 07:06.076   07:06.076 3.01
6 430 Lafayette 55 (Smith, E.) 07:06.503   07:06.503 3.11
7 439 Vermont 105 (McCarty, N.) 07:07.862   07:07.862 3.44
8 457 Mass -Lowell 64 (Kearns, A.) 07:08.390   07:08.390 3.57
9 432 St. Joseph's 91 (McKee, F.) 07:08.601   07:08.601 3.62
10 434 Massachusetts 65 (Anderson, R.) 07:10.568   07:10.568 4.1
11 445 Georgia Tech 45 (Frazier, K.) 07:13.954   07:13.954 4.91
12 441 Brock 9 (Spanics, B.) 07:14.024   07:14.024 4.93
13 456 Cincinnati 16 (O'Sullivan, A.) 07:18.771   07:18.771 6.08
14 443 Duquesne 34 (O?Neil, M.) 07:20.980   07:20.980 6.61
15 442 Case 14 (1a, S.) 07:21.591   07:21.591 6.76
16 444 Fordham 40 (Lipinski, E.) 07:23.582   07:23.582 7.24
17 448 Chicago 15 (Maltby, S.) 07:25.031   07:25.031 7.59
18 446 Nova Southeastern 80 (Sansur, B.) 07:25.249   07:25.249 7.65
19 447 John Carroll 54 (Mooney, J.) 07:25.817   07:25.817 7.78
20 438 High Point 48 (Hudson, E.) 07:29.287   07:29.287 8.62
21 453 Manhattan 60 (Arcomano, R.) 07:29.672   07:29.672 8.71
22 459 St. Thomas 90 (Granse, I.) 07:32.412   07:32.412 9.38
23 449 Florida 38 (de Zayas, T.) 07:36.368   07:36.368 10.33
24 437 Army 2 (Rivera, A.) 07:39.312   07:39.312 11.05
25 452 Iona 50 (Arluna, A.) 07:39.428   07:39.428 11.07
26 455 TCJN 100 (Dury, S.) 07:41.322   07:41.322 11.53
27 454 Penn St 84 (Steele, M.) 07:47.620   07:47.620 13.05
28 436 Marquette 62 (Riemer, M.) 08:09.670   08:09.670 18.38
29 450 Ohio U 82 (Brandewiede, E.) 09:00.242   09:00.242 30.61
- 451 Hofstra 46 (Marine, O.)     Scratch  


Legend:
DNS = Did Not Start   DNF = Did Not Finish   DSQ = Disqualified   OTL = Over Time Limit  







Copyright Charles River Timing LLC